This is the latest recevied weather packets stored in our database for station/object EA1FBN. If no packets are shown the sender has not sent any weather packets the latest 10 day(s).
| Time | Temp. | Humidity | Pressure | Rain* | Wind** | Luminosity | Snow |
|---|---|---|---|---|---|---|---|
| 1777954211 | 5.56° C | 53% | 1015.6 hPa | 0 mm | - | - | - |
| 1777953911 | 5.56° C | 53% | 1015.6 hPa | 0 mm | - | - | - |
| 1777943712 | 5.56° C | 63% | 1015.5 hPa | 0 mm | - | - | - |
| 1777943412 | 6.11° C | 63% | 1015.6 hPa | 0 mm | - | - | - |
| 1777943112 | 6.11° C | 62% | 1015.7 hPa | 0 mm | - | - | - |
| 1777942812 | 5.56° C | 63% | 1015.6 hPa | 0 mm | - | - | - |
| 1777942212 | 5.56° C | 63% | 1015.7 hPa | 0 mm | - | - | - |
| 1777941912 | 5.56° C | 63% | 1015.7 hPa | 0 mm | - | - | - |
| 1777941312 | 6.11° C | 63% | 1015.7 hPa | 0 mm | - | - | - |
| 1777941012 | 6.11° C | 63% | 1015.8 hPa | 0 mm | - | - | - |
| 1777940712 | 6.11° C | 63% | 1015.8 hPa | 0 mm | - | - | - |
| 1777940412 | 6.11° C | 63% | 1015.9 hPa | 0 mm | - | - | - |
| 1777938912 | 6.11° C | 63% | 1015.8 hPa | 0 mm | - | - | - |
| 1777937712 | 6.11° C | 63% | 1015.8 hPa | 0 mm | - | - | - |
| 1777930513 | 7.78° C | 71% | 1015.4 hPa | 0 mm | - | - | - |
| 1777930213 | 7.78° C | 71% | 1015.4 hPa | 0 mm | - | - | - |
| 1777929913 | 7.78° C | 71% | 1015.3 hPa | 0.25 mm | - | - | - |
| 1777929613 | 8.33° C | 70% | 1015.5 hPa | 0.25 mm | - | - | - |
| 1777928113 | 8.89° C | 71% | 1015.2 hPa | 0.25 mm | - | - | - |
| 1777922713 | 10° C | 74% | 1013.5 hPa | 0 mm | - | - | - |
| 1777912514 | 13.33° C | 69% | 1012.4 hPa | 0 mm | - | - | - |
| 1777912214 | 13.33° C | 69% | 1012.5 hPa | 0 mm | - | - | - |
| 1777911014 | 13.33° C | 71% | 1012.5 hPa | 0 mm | - | - | - |
| 1777910714 | 12.78° C | 71% | 1012.5 hPa | 0 mm | - | - | - |
| 1777908014 | 13.89° C | 62% | 1012.7 hPa | 0 mm | - | - | - |
* Rain latest hour (hover to see other rain measurements)
** Current wind speed in m/s (hover to see current wind gust speed)